Time;durP1;ratioP1;P1;durP2;ratioP2;P2;SDS_P1;SDS_P2;PMS_P1;PMS_P2;Temp;Humidity;BMP_temperature;BMP_pressure;BME280_temperature;BME280_humidity;BME280_pressure;Samples;Min_cycle;Max_cycle;Signal;HPM_P1;HPM_P2
2022/10/14 00:00:41;;;;;;;16.70;7.53;;;;;;;16.30;100.00;100294.78;5070399;28;20028;-63
2022/10/14 00:03:06;;;;;;;14.65;7.63;;;;;;;16.29;100.00;100290.38;5074033;28;20012;-63
2022/10/14 00:05:31;;;;;;;13.32;6.78;;;;;;;16.28;100.00;100292.19;5093697;28;20109;-62
2022/10/14 00:07:57;;;;;;;16.67;7.75;;;;;;;16.30;100.00;100289.44;5080237;28;20051;-63
2022/10/14 00:10:22;;;;;;;16.35;7.85;;;;;;;16.31;100.00;100291.19;5073860;28;20052;-63
2022/10/14 00:12:49;;;;;;;13.75;6.65;;;;;;;16.25;100.00;100295.03;5076935;28;20467;-62
2022/10/14 00:15:15;;;;;;;11.98;6.40;;;;;;;16.24;100.00;100289.75;5074046;28;20028;-62
2022/10/14 00:17:40;;;;;;;13.90;7.90;;;;;;;16.23;100.00;100291.56;5074112;28;20744;-63
2022/10/14 00:20:06;;;;;;;12.27;7.18;;;;;;;16.23;100.00;100293.34;5073630;28;20108;-63
2022/10/14 00:22:31;;;;;;;12.73;7.20;;;;;;;16.23;100.00;100288.00;5073489;28;20399;-62
2022/10/14 00:24:57;;;;;;;14.65;7.68;;;;;;;16.22;100.00;100287.16;5073356;28;20023;-62
2022/10/14 00:27:22;;;;;;;12.70;7.50;;;;;;;16.22;100.00;100287.16;5073559;28;20031;-63
2022/10/14 00:29:48;;;;;;;12.98;6.68;;;;;;;16.23;100.00;100285.31;5073856;28;20025;-63
2022/10/14 00:32:14;;;;;;;15.30;6.38;;;;;;;16.19;100.00;100270.31;5090786;28;20028;-63
2022/10/14 00:34:39;;;;;;;14.95;6.88;;;;;;;16.23;100.00;100283.50;5093930;28;20055;-62
2022/10/14 00:37:04;;;;;;;13.65;7.20;;;;;;;16.21;100.00;100279.19;5093552;28;20049;-63
2022/10/14 00:39:30;;;;;;;12.07;6.50;;;;;;;16.20;100.00;100285.47;5093561;28;20031;-63
2022/10/14 00:41:55;;;;;;;13.68;6.93;;;;;;;16.18;100.00;100284.66;5093631;28;20024;-63
2022/10/14 00:44:23;;;;;;;9.95;5.95;;;;;;;16.20;100.00;100285.47;5093721;28;20383;-62
2022/10/14 00:46:50;;;;;;;13.18;6.80;;;;;;;16.19;100.00;100286.44;5093567;28;20036;-62
2022/10/14 00:49:26;;;;;;;11.63;6.63;;;;;;;16.17;100.00;100282.94;5093658;28;20495;-62
2022/10/14 00:52:04;;;;;;;13.77;6.97;;;;;;;16.16;100.00;100281.22;5093469;28;20542;-63
2022/10/14 00:54:38;;;;;;;16.98;7.90;;;;;;;16.17;100.00;100282.94;5090420;28;20032;-62
2022/10/14 00:57:04;;;;;;;11.45;6.93;;;;;;;16.15;100.00;100277.66;5083277;28;20033;-63
2022/10/14 00:59:32;;;;;;;14.82;7.45;;;;;;;16.14;100.00;100280.44;5073261;28;20119;-62
2022/10/14 01:01:57;;;;;;;14.02;6.90;;;;;;;16.13;100.00;100271.50;5072446;28;20036;-63
2022/10/14 01:04:23;;;;;;;11.10;6.32;;;;;;;16.12;100.00;100274.25;5068247;28;20081;-62
2022/10/14 01:07:27;;;;;;;11.02;6.97;;;;;;;16.09;100.00;100271.75;5072781;28;20508;-63
2022/10/14 01:09:59;;;;;;;14.93;6.68;;;;;;;16.09;100.00;100274.41;5041491;28;20032;-62
2022/10/14 01:12:53;;;;;;;14.07;7.72;;;;;;;16.07;100.00;100270.94;5072785;28;20040;-63
2022/10/14 01:15:34;;;;;;;12.85;7.75;;;;;;;16.07;100.00;100270.94;5072256;28;20033;-63
2022/10/14 01:18:02;;;;;;;13.88;7.07;;;;;;;16.07;100.00;100265.56;5072702;28;20024;-63
2022/10/14 01:20:30;;;;;;;17.92;7.75;;;;;;;16.07;100.00;100263.78;5072572;28;20032;-63
2022/10/14 01:23:23;;;;;;;11.93;6.97;;;;;;;16.05;100.00;100262.09;5072602;28;20099;-62
2022/10/14 01:26:09;;;;;;;13.23;7.13;;;;;;;16.04;100.00;100268.41;5072532;28;20108;-63
2022/10/14 01:28:34;;;;;;;11.95;7.32;;;;;;;16.03;100.00;100259.50;5052734;28;20074;-63
2022/10/14 01:31:05;;;;;;;14.20;7.22;;;;;;;16.01;100.00;100256.03;5052546;28;20104;-63
2022/10/14 01:33:37;;;;;;;12.98;6.78;;;;;;;16.01;100.00;100257.84;5052259;28;20024;-63
2022/10/14 01:36:21;;;;;;;13.50;6.97;;;;;;;16.01;100.00;100257.84;5052347;28;20040;-63
2022/10/14 01:38:49;;;;;;;;;;;;;;;16.01;100.00;100260.53;5060576;28;20119;-63
2022/10/14 01:41:20;;;;;;;11.63;7.32;;;;;;;16.01;100.00;100261.41;5072132;28;20014;-63
2022/10/14 01:43:49;;;;;;;14.32;6.75;;;;;;;16.01;100.00;100260.53;5071605;28;20025;-63
2022/10/14 01:46:17;;;;;;;13.02;7.03;;;;;;;16.03;100.00;100264.00;5071827;28;20028;-64
2022/10/14 01:48:53;;;;;;;14.02;7.07;;;;;;;16.05;100.00;100262.09;5071912;28;20033;-64
2022/10/14 01:51:25;;;;;;;13.07;6.93;;;;;;;16.03;100.00;100256.81;5071519;28;20054;-63
2022/10/14 01:53:59;;;;;;;12.77;6.95;;;;;;;16.04;100.00;100257.69;5071596;28;20683;-64
2022/10/14 01:56:28;;;;;;;11.43;6.47;;;;;;;16.05;100.00;100259.41;5071423;28;20025;-63
2022/10/14 01:58:56;;;;;;;15.32;7.50;;;;;;;16.06;100.00;100258.47;5071563;28;20414;-63
2022/10/14 02:01:23;;;;;;;11.73;6.13;;;;;;;16.06;100.00;100245.94;5071896;28;20028;-63
2022/10/14 02:03:49;;;;;;;11.80;6.75;;;;;;;16.07;100.00;100239.63;5079785;28;20020;-63
2022/10/14 02:06:32;;;;;;;15.02;8.05;;;;;;;16.09;100.00;100239.53;5054878;28;20048;-63
2022/10/14 02:09:19;;;;;;;11.55;6.65;;;;;;;16.11;100.00;100226.91;5071677;28;20161;-63
2022/10/14 02:11:51;;;;;;;11.63;6.47;;;;;;;16.11;100.00;100226.91;5071521;28;20056;-62
2022/10/14 02:14:32;;;;;;;10.40;5.88;;;;;;;16.08;100.00;100224.41;5071662;28;20103;-64
2022/10/14 02:17:19;;;;;;;10.82;5.45;;;;;;;16.07;100.00;100223.53;5071686;28;20040;-63
2022/10/14 02:19:54;;;;;;;10.82;6.15;;;;;;;16.09;100.00;100218.06;5071484;28;20032;-63
2022/10/14 02:22:28;;;;;;;16.95;7.32;;;;;;;16.07;100.00;100223.53;5071562;28;20095;-63
2022/10/14 02:24:59;;;;;;;10.43;6.47;;;;;;;16.10;100.00;100227.84;5071676;28;20673;-63
2022/10/14 02:27:27;;;;;;;10.65;5.95;;;;;;;16.10;100.00;100214.44;5070584;28;20028;-63
2022/10/14 02:29:55;;;;;;;12.18;6.38;;;;;;;16.08;100.00;100214.50;5071352;28;20062;-63
2022/10/14 02:32:24;;;;;;;11.43;5.63;;;;;;;16.07;100.00;100209.22;5070845;28;20143;-63
2022/10/14 02:34:53;;;;;;;11.38;6.38;;;;;;;16.07;100.00;100196.69;5071377;28;20024;-63
2022/10/14 02:37:21;;;;;;;14.25;6.32;;;;;;;16.07;100.00;100195.81;5072345;28;20438;-63
2022/10/14 02:40:09;;;;;;;13.20;6.60;;;;;;;16.06;100.00;100183.34;5071295;28;20027;-63
2022/10/14 02:42:35;;;;;;;11.82;5.50;;;;;;;16.05;100.00;100186.97;5071090;28;20036;-63
2022/10/14 02:45:00;;;;;;;11.23;6.18;;;;;;;16.02;100.00;100187.13;5071198;28;20033;-63
2022/10/14 02:47:26;;;;;;;18.55;5.93;;;;;;;16.01;100.00;100185.41;5071263;28;20403;-63
2022/10/14 02:49:52;;;;;;;8.45;5.20;;;;;;;15.98;100.00;100180.19;5070507;28;20052;-63
2022/10/14 02:52:18;;;;;;;11.55;5.88;;;;;;;15.99;100.00;100176.56;5070911;28;20028;-63
2022/10/14 02:54:44;;;;;;;11.65;5.78;;;;;;;16.01;100.00;100170.19;5071235;28;20025;-63
2022/10/14 02:57:10;;;;;;;11.05;6.07;;;;;;;15.99;100.00;100165.81;5073508;28;20575;-63
2022/10/14 02:59:35;;;;;;;12.45;6.93;;;;;;;15.96;100.00;100160.63;5071246;28;20036;-64
2022/10/14 03:02:01;;;;;;;11.00;6.63;;;;;;;16.03;100.00;100167.41;5070929;28;20028;-64
2022/10/14 03:04:26;;;;;;;14.65;6.10;;;;;;;16.03;100.00;100162.06;5085813;28;20024;-63
2022/10/14 03:06:52;;;;;;;13.82;7.05;;;;;;;16.05;100.00;100155.63;5090577;28;20479;-63
2022/10/14 03:09:18;;;;;;;12.52;6.65;;;;;;;16.05;100.00;100146.72;5090945;28;20506;-63
2022/10/14 03:11:43;;;;;;;11.52;5.88;;;;;;;16.03;100.00;100149.47;5072916;28;20024;-63
2022/10/14 03:14:09;;;;;;;14.20;5.82;;;;;;;16.05;100.00;100144.91;5077667;28;20017;-63
2022/10/14 03:16:34;;;;;;;12.13;5.90;;;;;;;16.02;100.00;100138.81;5070923;28;20024;-63
2022/10/14 03:18:59;;;;;;;12.70;6.43;;;;;;;16.03;100.00;100136.06;5070749;28;20107;-63
2022/10/14 03:21:25;;;;;;;10.70;5.82;;;;;;;16.09;100.00;100134.88;5070556;28;20055;-63
2022/10/14 03:23:51;;;;;;;11.63;5.10;;;;;;;16.06;100.00;100124.31;5070742;28;20078;-63
2022/10/14 03:26:16;;;;;;;9.98;4.88;;;;;;;16.14;100.00;100138.19;5069996;28;20029;-63
2022/10/14 03:28:42;;;;;;;17.40;6.18;;;;;;;16.14;100.00;100138.19;5070692;28;20031;-63
2022/10/14 03:31:10;;;;;;;10.05;5.35;;;;;;;16.15;100.00;100143.47;5070847;28;20111;-63
2022/10/14 03:33:36;;;;;;;12.07;5.80;;;;;;;16.12;100.00;100145.44;5070636;28;20036;-63
2022/10/14 03:36:02;;;;;;;12.30;5.95;;;;;;;16.11;100.00;100138.34;5070788;28;20024;-63
2022/10/14 03:38:27;;;;;;;18.90;5.03;;;;;;;16.12;100.00;100132.91;5070666;28;20436;-63
2022/10/14 03:40:53;;;;;;;10.43;5.32;;;;;;;16.11;100.00;100133.84;5074866;28;20032;-63
2022/10/14 03:43:18;;;;;;;14.70;6.10;;;;;;;16.10;100.00;100125.88;5056391;28;20086;-63
2022/10/14 03:45:44;;;;;;;23.67;6.70;;;;;;;16.09;100.00;100122.34;5074377;28;20027;-64
2022/10/14 03:48:10;;;;;;;14.13;6.40;;;;;;;16.05;100.00;100123.44;5074408;28;20028;-63
2022/10/14 03:50:36;;;;;;;15.73;6.57;;;;;;;16.09;100.00;100111.59;5074456;28;20108;-63
2022/10/14 03:53:01;;;;;;;11.65;6.07;;;;;;;16.07;100.00;100115.31;5074472;28;20058;-63
2022/10/14 03:55:27;;;;;;;13.68;7.22;;;;;;;16.07;100.00;100116.19;5074276;28;20494;-63
2022/10/14 03:57:52;;;;;;;16.80;7.93;;;;;;;16.07;100.00;100115.31;5076825;28;20705;-63
2022/10/14 04:00:18;;;;;;;15.93;6.82;;;;;;;16.07;100.00;100109.94;5074395;28;20436;-63
2022/10/14 04:02:43;;;;;;;17.10;7.20;;;;;;;16.06;100.00;100101.03;5074007;28;20021;-63
2022/10/14 04:05:09;;;;;;;17.27;7.35;;;;;;;16.09;100.00;100100.88;5073710;28;20036;-64
2022/10/14 04:07:35;;;;;;;21.80;8.85;;;;;;;16.09;100.00;100102.69;5073353;28;20033;-63
2022/10/14 04:10:00;;;;;;;24.30;7.15;;;;;;;16.07;100.00;100094.72;5074348;28;20051;-62
2022/10/14 04:12:26;;;;;;;23.08;6.97;;;;;;;16.17;100.00;100101.31;5056214;28;20024;-63
2022/10/14 04:14:55;;;;;;;11.93;6.68;;;;;;;16.16;100.00;100096.88;5073942;28;20032;-63
2022/10/14 04:17:21;;;;;;;11.98;7.15;;;;;;;16.16;100.00;100099.56;5055937;28;20021;-63
2022/10/14 04:19:46;;;;;;;13.02;6.00;;;;;;;16.18;100.00;100094.13;5073695;28;20583;-63
2022/10/14 04:22:11;;;;;;;17.77;6.30;;;;;;;16.20;100.00;100086.84;5073581;28;20034;-63
2022/10/14 04:24:37;;;;;;;16.08;7.88;;;;;;;16.21;100.00;100083.25;5073671;28;20028;-63
2022/10/14 04:27:02;;;;;;;12.40;5.38;;;;;;;16.23;100.00;100084.88;5073877;28;20020;-63
2022/10/14 04:29:28;;;;;;;13.07;6.63;;;;;;;16.22;100.00;100082.28;5073826;28;20042;-64
2022/10/14 04:31:53;;;;;;;16.42;8.90;;;;;;;16.21;100.00;100083.25;5073765;28;20385;-63
2022/10/14 04:34:19;;;;;;;15.30;7.18;;;;;;;16.23;100.00;100084.00;5073503;28;20028;-63
2022/10/14 04:36:44;;;;;;;11.55;6.70;;;;;;;16.24;100.00;100070.53;5073318;28;20082;-63
2022/10/14 04:39:10;;;;;;;11.98;6.43;;;;;;;16.25;100.00;100077.63;5073252;28;20556;-63
2022/10/14 04:41:35;;;;;;;14.75;6.93;;;;;;;16.25;100.00;100060.63;5073711;28;20054;-63
2022/10/14 04:44:02;;;;;;;16.70;7.55;;;;;;;16.33;100.00;100063.75;5075942;28;20016;-63
2022/10/14 04:46:27;;;;;;;11.57;5.90;;;;;;;16.34;100.00;100060.16;5073163;28;20044;-63
2022/10/14 04:48:53;;;;;;;14.43;7.47;;;;;;;16.34;100.00;100061.00;5073328;28;20028;-63
2022/10/14 04:51:18;;;;;;;12.80;7.03;;;;;;;16.27;100.00;100050.69;5054099;28;20031;-63
2022/10/14 04:53:44;;;;;;;15.32;7.10;;;;;;;16.26;100.00;100055.19;5075478;28;20043;-63
2022/10/14 04:56:09;;;;;;;15.48;9.13;;;;;;;16.29;100.00;100046.09;5073279;28;20036;-63
2022/10/14 04:58:34;;;;;;;14.98;7.28;;;;;;;16.27;100.00;100042.63;5072986;28;20036;-63
2022/10/14 05:01:00;;;;;;;15.45;7.63;;;;;;;16.25;100.00;100031.09;5073277;28;20027;-63
2022/10/14 05:03:25;;;;;;;11.30;6.40;;;;;;;16.26;100.00;100027.50;5079052;28;20020;-63
2022/10/14 05:05:51;;;;;;;11.55;6.25;;;;;;;16.24;100.00;100021.34;5093313;28;20047;-63
2022/10/14 05:08:16;;;;;;;12.25;5.53;;;;;;;16.26;100.00;100022.13;5072173;28;20876;-63
2022/10/14 05:10:42;;;;;;;13.43;5.43;;;;;;;16.25;100.00;100017.69;5072818;28;20028;-63
2022/10/14 05:13:08;;;;;;;8.75;5.97;;;;;;;16.30;100.00;100005.75;5072936;28;20605;-63
2022/10/14 05:15:33;;;;;;;12.13;5.90;;;;;;;16.32;100.00;100013.72;5071722;28;20689;-63
2022/10/14 05:17:59;;;;;;;9.30;4.75;;;;;;;16.34;100.00;100014.50;5072108;28;20028;-63
2022/10/14 05:20:24;;;;;;;10.48;4.80;;;;;;;16.35;100.00;100008.19;5071199;28;20036;-63
2022/10/14 05:22:50;;;;;;;9.38;4.90;;;;;;;16.35;100.00;100000.13;5071145;28;20115;-63
2022/10/14 05:25:15;;;;;;;8.65;4.80;;;;;;;16.33;100.00;99991.28;5070728;28;20103;-63
2022/10/14 05:27:41;;;;;;;11.52;5.32;;;;;;;16.31;100.00;100009.31;5070841;28;20492;-63
2022/10/14 05:30:07;;;;;;;16.88;6.72;;;;;;;16.31;100.00;100012.84;5071069;28;20463;-63
2022/10/14 05:32:32;;;;;;;24.13;9.73;;;;;;;16.33;100.00;100010.94;5071175;28;20020;-63
2022/10/14 05:34:58;;;;;;;27.80;11.30;;;;;;;16.35;100.00;100009.06;5071961;28;20484;-63
2022/10/14 05:37:23;;;;;;;29.60;12.73;;;;;;;16.36;100.00;100007.25;5072787;28;20058;-63
2022/10/14 05:39:49;;;;;;;33.15;18.08;;;;;;;16.39;100.00;100012.44;5072151;28;20032;-63
2022/10/14 05:42:14;;;;;;;30.40;13.52;;;;;;;16.42;100.00;100012.25;5070021;28;20053;-63
2022/10/14 05:44:39;;;;;;;16.52;8.90;;;;;;;16.43;100.00;100005.91;5071563;28;20043;-63
2022/10/14 05:47:05;;;;;;;15.75;8.65;;;;;;;16.43;100.00;100001.44;5071932;28;20111;-63
2022/10/14 05:49:30;;;;;;;73.78;34.67;;;;;;;16.43;100.00;99997.88;5071929;28;20020;-63
2022/10/14 05:51:56;;;;;;;231.32;84.78;;;;;;;16.43;100.00;100001.44;5071899;28;20097;-63
2022/10/14 05:54:21;;;;;;;145.05;53.67;;;;;;;16.43;100.00;100000.56;5074581;28;20020;-63
2022/10/14 05:56:46;;;;;;;49.15;23.10;;;;;;;16.40;100.00;100001.59;5072046;28;20039;-63
2022/10/14 05:59:12;;;;;;;124.82;44.97;;;;;;;16.43;100.00;99995.19;5071995;28;20020;-63
2022/10/14 06:01:39;;;;;;;96.50;40.05;;;;;;;16.43;100.00;100003.22;5071677;28;20024;-63
2022/10/14 06:04:05;;;;;;;29.38;13.30;;;;;;;16.45;100.00;100004.03;5083454;28;20451;-63
2022/10/14 06:06:31;;;;;;;23.40;10.88;;;;;;;16.43;100.00;99993.38;5085328;28;20499;-63
2022/10/14 06:08:56;;;;;;;19.13;10.48;;;;;;;16.46;100.00;99998.59;5066770;28;20067;-63
2022/10/14 06:11:25;;;;;;;14.43;7.72;;;;;;;16.48;100.00;100003.88;5065393;28;20024;-63
2022/10/14 06:13:51;;;;;;;18.95;10.25;;;;;;;16.51;100.00;100003.69;5071138;28;20074;-63
2022/10/14 06:16:17;;;;;;;19.25;10.57;;;;;;;16.52;100.00;100000.06;5071566;28;20093;-63
2022/10/14 06:18:42;;;;;;;15.30;9.50;;;;;;;16.52;100.00;100000.91;5071700;28;20352;-63
2022/10/14 06:21:10;;;;;;;13.30;6.85;;;;;;;16.57;100.00;100003.38;5071596;28;20448;-63
2022/10/14 06:23:36;;;;;;;10.98;6.45;;;;;;;16.59;100.00;99994.25;5071324;28;20421;-63
2022/10/14 06:26:07;;;;;;;14.35;6.85;;;;;;;16.62;100.00;99995.91;5071276;28;20028;-63
2022/10/14 06:28:33;;;;;;;11.25;5.82;;;;;;;16.63;100.00;99993.13;5051133;28;20065;-63
2022/10/14 06:30:58;;;;;;;11.05;4.38;;;;;;;16.63;100.00;99992.25;5055423;28;20762;-63
2022/10/14 06:33:24;;;;;;;10.82;5.50;;;;;;;16.64;100.00;99999.34;5071335;28;20065;-64
2022/10/14 06:35:49;;;;;;;10.05;5.00;;;;;;;16.62;100.00;99993.22;5071434;28;20040;-63
2022/10/14 06:38:15;;;;;;;17.58;5.00;;;;;;;16.63;100.00;99997.63;5071182;28;20131;-63
2022/10/14 06:40:40;;;;;;;8.70;4.80;;;;;;;16.63;100.00;99992.25;5071282;28;20059;-63
2022/10/14 06:43:06;;;;;;;11.00;5.10;;;;;;;16.64;100.00;99988.59;5071102;28;20016;-63
2022/10/14 06:45:32;;;;;;;12.57;4.85;;;;;;;16.65;100.00;99995.72;5042718;28;20499;-63
2022/10/14 06:47:58;;;;;;;8.25;4.13;;;;;;;16.65;100.00;99998.41;5087636;28;20028;-63
2022/10/14 06:50:24;;;;;;;9.00;4.80;;;;;;;16.64;100.00;100000.22;5070400;28;20047;-63
2022/10/14 06:52:49;;;;;;;9.00;4.47;;;;;;;16.65;100.00;99995.72;5057697;28;20042;-64
2022/10/14 06:55:15;;;;;;;9.38;4.32;;;;;;;16.66;100.00;99986.72;5060756;28;20041;-63
2022/10/14 06:57:40;;;;;;;8.95;4.97;;;;;;;16.69;100.00;99997.28;5070441;28;20027;-63
2022/10/14 07:00:07;;;;;;;6.93;4.15;;;;;;;16.65;100.00;99985.88;5065288;28;20489;-64
2022/10/14 07:02:32;;;;;;;8.07;4.32;;;;;;;16.72;100.00;99997.97;5044586;28;20078;-63
2022/10/14 07:04:58;;;;;;;11.00;4.78;;;;;;;16.75;100.00;99997.78;5066585;28;20064;-63
2022/10/14 07:07:23;;;;;;;8.18;4.47;;;;;;;16.78;100.00;99988.69;5055005;28;20070;-63
2022/10/14 07:09:49;;;;;;;10.20;5.35;;;;;;;16.82;100.00;99991.09;5059062;28;20041;-64
2022/10/14 07:12:14;;;;;;;10.45;4.57;;;;;;;16.89;100.00;99994.31;5055162;28;20032;-64
2022/10/14 07:14:40;;;;;;;11.95;4.88;;;;;;;16.96;100.00;99995.69;5066189;28;20136;-63
2022/10/14 07:17:08;;;;;;;13.13;5.45;;;;;;;16.98;100.00;99993.78;5068062;28;20035;-63
2022/10/14 07:19:34;;;;;;;7.65;4.53;;;;;;;17.02;100.00;100001.56;5068854;28;20032;-64
2022/10/14 07:22:00;;;;;;;16.80;5.53;;;;;;;17.03;100.00;99997.06;5069812;28;20036;-63
2022/10/14 07:24:25;;;;;;;11.48;4.97;;;;;;;17.07;100.00;100003.97;5069664;28;20050;-63
2022/10/14 07:26:51;;;;;;;6.90;4.50;;;;;;;17.07;100.00;99996.78;5067158;28;20078;-64
2022/10/14 07:29:16;;;;;;;8.95;5.13;;;;;;;17.00;100.00;99992.72;5037758;28;20036;-63
2022/10/14 07:31:42;;;;;;;10.60;4.88;;;;;;;16.93;100.00;99990.50;5061494;28;20037;-63
2022/10/14 07:34:08;;;;;;;15.23;5.50;;;;;;;16.97;100.00;100002.78;5052615;28;20023;-63
2022/10/14 07:36:33;;;;;;;10.95;5.43;;;;;;;16.98;100.00;100010.75;5050206;28;20048;-63
2022/10/14 07:38:59;;;;;;;11.40;6.07;;;;;;;16.99;100.00;100015.19;5053975;28;20591;-63
2022/10/14 07:41:25;;;;;;;8.40;5.80;;;;;;;17.00;100.00;100014.22;5069016;28;20555;-64
2022/10/14 07:44:01;;;;;;;8.07;5.18;;;;;;;17.03;100.00;100023.94;5069595;28;20029;-63
2022/10/14 07:46:33;;;;;;;9.93;5.22;;;;;;;17.07;100.00;100026.34;5058410;28;20024;-64
2022/10/14 07:49:03;;;;;;;11.45;5.47;;;;;;;17.05;100.00;100022.88;5070393;28;20052;-63
2022/10/14 07:51:30;;;;;;;7.88;5.10;;;;;;;17.11;100.00;100024.34;5067787;28;20552;-63
2022/10/14 07:53:58;;;;;;;10.82;6.07;;;;;;;17.18;100.00;100011.41;5060403;28;20024;-63
2022/10/14 07:56:23;;;;;;;10.93;5.80;;;;;;;17.21;100.00;100017.47;5058554;28;20384;-63
2022/10/14 07:58:51;;;;;;;12.20;5.63;;;;;;;17.18;100.00;100003.34;5049914;28;20021;-64
2022/10/14 08:01:17;;;;;;;10.43;5.28;;;;;;;17.27;100.00;100011.72;5046572;28;20036;-64
2022/10/14 08:03:44;;;;;;;9.27;5.63;;;;;;;17.26;100.00;100012.69;5070721;28;20028;-64
2022/10/14 08:06:10;;;;;;;11.40;5.25;;;;;;;17.28;100.00;100016.13;5077594;28;20036;-64
2022/10/14 08:08:36;;;;;;;13.80;6.10;;;;;;;17.29;100.00;100015.19;5069724;28;20047;-64
2022/10/14 08:11:06;;;;;;;10.80;5.15;;;;;;;17.34;100.00;100022.97;5069461;28;20020;-63
2022/10/14 08:13:32;;;;;;;9.35;5.32;;;;;;;17.35;100.00;100017.50;5059464;28;20027;-64
2022/10/14 08:15:58;;;;;;;14.38;5.60;;;;;;;17.42;100.00;100018.00;5039398;28;20036;-64
2022/10/14 08:18:24;;;;;;;14.02;5.95;;;;;;;17.39;100.00;100008.28;5057768;28;20028;-63
2022/10/14 08:20:51;;;;;;;17.42;6.93;;;;;;;17.52;100.00;100008.44;5050342;28;20067;-63
2022/10/14 08:23:16;;;;;;;13.43;6.03;;;;;;;17.58;100.00;100010.75;5053041;28;20049;-64
2022/10/14 08:25:43;;;;;;;14.27;6.80;;;;;;;17.66;100.00;100009.31;5071351;28;20082;-64
2022/10/14 08:28:08;;;;;;;14.23;6.60;;;;;;;17.72;100.00;100008.97;5058276;28;20028;-63
2022/10/14 08:30:34;;;;;;;12.40;6.38;;;;;;;17.74;100.00;100006.19;5069177;28;20487;-64
2022/10/14 08:33:00;;;;;;;11.50;5.90;;;;;;;17.83;100.00;100009.16;5072584;28;20025;-63
2022/10/14 08:35:25;;;;;;;14.35;6.20;;;;;;;17.89;100.00;100006.06;5057469;28;20033;-63
2022/10/14 08:37:56;;;;;;;12.75;5.78;;;;;;;17.91;100.00;99998.78;5065058;28;20055;-65
2022/10/14 08:40:22;;;;;;;9.55;5.03;;;;;;;17.92;100.00;100005.88;5045388;28;20024;-64
2022/10/14 08:43:06;;;;;;;12.90;5.90;;;;;;;17.91;100.00;99998.78;5057770;28;20032;-65
2022/10/14 08:45:38;;;;;;;13.13;5.55;;;;;;;17.95;100.00;99999.44;5067398;28;20086;-64
2022/10/14 08:48:13;;;;;;;15.35;8.23;;;;;;;17.92;100.00;99989.72;5070095;28;20064;-64
2022/10/14 08:50:47;;;;;;;12.15;7.65;;;;;;;17.96;100.00;99991.28;5058413;28;20123;-64
2022/10/14 08:53:17;;;;;;;14.63;7.72;;;;;;;18.02;100.00;100004.34;5067229;28;20021;-64
2022/10/14 08:55:46;;;;;;;11.32;6.35;;;;;;;17.97;100.00;100001.06;5057026;28;20067;-64
2022/10/14 08:58:20;;;;;;;16.42;5.97;;;;;;;17.92;100.00;100008.56;5070349;28;20111;-64
2022/10/14 09:00:49;;;;;;;14.82;8.88;;;;;;;17.94;100.00;100009.34;5065916;28;20032;-64
2022/10/14 09:03:20;;;;;;;16.25;10.00;;;;;;;17.93;100.00;100006.75;5055977;28;20024;-64
2022/10/14 09:05:55;;;;;;;15.85;9.23;;;;;;;17.99;100.00;100007.22;5066021;28;20036;-64
2022/10/14 09:08:29;;;;;;;14.32;6.40;;;;;;;18.07;100.00;100015.69;5062277;28;20045;-65
2022/10/14 09:10:55;;;;;;;11.95;6.35;;;;;;;18.05;100.00;100011.38;5055547;28;20401;-65
2022/10/14 09:13:33;;;;;;;9.43;5.93;;;;;;;17.97;100.00;100009.16;5071811;28;20031;-64
2022/10/14 09:16:23;;;;;;;14.95;8.98;;;;;;;17.92;100.00;100015.78;5062898;28;20123;-65
2022/10/14 09:18:51;;;;;;;10.35;5.57;;;;;;;17.76;100.00;100015.88;5050425;28;20455;-64
2022/10/14 09:21:30;;;;;;;9.18;5.15;;;;;;;17.71;100.00;100017.97;5070985;28;20029;-63
2022/10/14 09:24:00;;;;;;;11.23;5.43;;;;;;;17.70;100.00;100013.56;5054467;28;20092;-63
2022/10/14 09:26:42;;;;;;;10.10;4.88;;;;;;;17.64;100.00;100005.00;5065104;28;20031;-63
2022/10/14 09:29:34;;;;;;;10.35;4.82;;;;;;;17.63;100.00;100003.25;5057833;28;20036;-64
2022/10/14 09:32:04;;;;;;;9.35;5.25;;;;;;;17.61;100.00;99994.44;5059057;28;20036;-64
2022/10/14 09:34:44;;;;;;;6.28;3.70;;;;;;;17.55;100.00;99992.97;5054141;28;20013;-64
2022/10/14 09:37:26;;;;;;;11.32;4.50;;;;;;;17.50;100.00;99997.78;5054631;28;20053;-64
2022/10/14 09:39:55;;;;;;;10.07;4.38;;;;;;;17.55;100.00;99990.28;5055312;28;20188;-64
2022/10/14 09:42:26;;;;;;;7.70;4.63;;;;;;;17.55;100.00;99974.16;5057017;28;20028;-64
2022/10/14 09:45:09;;;;;;;24.05;14.02;;;;;;;17.58;100.00;99979.34;5060071;28;20112;-64
2022/10/14 09:48:06;;;;;;;11.38;4.32;;;;;;;17.61;100.00;99971.06;5058022;28;20028;-65
2022/10/14 09:50:36;;;;;;;12.57;5.90;;;;;;;17.73;100.00;99973.00;5055877;28;20178;-65
2022/10/14 09:53:29;;;;;;;10.48;4.85;;;;;;;17.80;100.00;99962.72;5052027;28;20023;-64
2022/10/14 09:56:01;;;;;;;10.43;4.70;;;;;;;17.85;100.00;99968.69;5054330;28;20040;-64
2022/10/14 09:58:52;;;;;;;7.40;3.70;;;;;;;17.80;100.00;99968.13;5067220;28;20036;-64
2022/10/14 10:01:20;;;;;;;20.00;9.30;;;;;;;17.86;100.00;99963.22;5054602;28;20037;-64
2022/10/14 10:03:48;;;;;;;9.13;5.45;;;;;;;17.90;100.00;99964.75;5054139;28;20053;-65
2022/10/14 10:06:20;;;;;;;9.13;4.95;;;;;;;18.01;100.00;99962.25;5054355;28;20175;-64
2022/10/14 10:08:51;;;;;;;9.38;5.93;;;;;;;18.08;100.00;99958.22;5057054;28;20036;-64
2022/10/14 10:11:34;;;;;;;10.43;5.32;;;;;;;18.18;100.00;99959.34;5056873;28;20170;-65
2022/10/14 10:14:21;;;;;;;7.75;3.97;;;;;;;18.20;100.00;99949.31;5053465;28;20098;-64
2022/10/14 10:16:48;;;;;;;7.38;3.88;;;;;;;18.22;100.00;99946.53;5060201;28;20112;-64
2022/10/14 10:19:30;;;;;;;10.38;4.15;;;;;;;18.30;100.00;99947.75;5054227;28;20031;-65
2022/10/14 10:22:21;;;;;;;8.95;3.58;;;;;;;18.49;100.00;99938.50;5054821;28;20111;-65
2022/10/14 10:24:49;;;;;;;7.15;3.75;;;;;;;18.64;100.00;99929.41;5042817;28;20428;-65
2022/10/14 10:27:27;;;;;;;9.95;5.05;;;;;;;18.82;100.00;99929.06;5053812;28;20025;-65
2022/10/14 10:29:56;;;;;;;9.35;4.20;;;;;;;18.99;100.00;99920.69;5053544;28;20032;-65
2022/10/14 10:32:54;;;;;;;7.85;3.97;;;;;;;19.16;100.00;99923.06;5054398;28;20853;-65
2022/10/14 10:35:32;;;;;;;7.80;4.07;;;;;;;19.28;100.00;99926.75;5042558;28;20053;-65
2022/10/14 10:38:14;;;;;;;9.55;4.00;;;;;;;19.46;100.00;99914.72;5054261;28;20032;-66
2022/10/14 10:40:49;;;;;;;7.32;4.07;;;;;;;19.83;100.00;99912.97;5055656;28;20029;-65
2022/10/14 10:43:24;;;;;;;5.70;3.50;;;;;;;19.92;98.16;99907.75;5056183;28;20033;-65
2022/10/14 10:45:49;;;;;;;7.32;3.83;;;;;;;19.75;95.66;99915.34;5052749;28;20857;-65
2022/10/14 10:48:26;;;;;;;7.47;4.03;;;;;;;19.86;96.34;99892.00;5052032;28;20033;-65
2022/10/14 10:51:01;;;;;;;7.45;3.45;;;;;;;20.29;95.93;99896.03;5054683;28;20024;-65
2022/10/14 10:53:48;;;;;;;5.95;2.63;;;;;;;20.39;94.69;99888.09;5051939;28;20731;-65
2022/10/14 10:56:13;;;;;;;4.95;2.80;;;;;;;20.47;93.81;99894.66;5056426;28;20029;-65
2022/10/14 10:59:05;;;;;;;7.05;3.30;;;;;;;20.42;92.45;99880.63;5055653;28;20392;-66
2022/10/14 11:01:37;;;;;;;8.25;5.03;;;;;;;20.49;91.52;99887.28;5051322;28;20029;-65
2022/10/14 11:04:14;;;;;;;8.98;4.18;;;;;;;20.61;92.52;99878.25;5055743;28;20033;-65
2022/10/14 11:12:38;;;;;;;;;;;;;;;20.22;90.70;99870.44;5052816;28;20039;-65
2022/10/14 11:15:12;;;;;;;8.80;4.18;;;;;;;20.06;91.47;99867.13;5059163;28;19924;-64
2022/10/14 11:17:59;;;;;;;7.00;2.97;;;;;;;20.09;90.52;99872.28;5054059;28;20032;-64
2022/10/14 11:20:42;;;;;;;5.65;2.40;;;;;;;20.14;90.16;99864.72;5051903;28;20802;-65
2022/10/14 11:23:33;;;;;;;5.32;2.97;;;;;;;20.29;91.56;99869.03;5055494;28;20021;-65
2022/10/14 11:25:58;;;;;;;5.20;2.58;;;;;;;20.38;89.89;99862.03;5054787;28;20024;-65
2022/10/14 11:28:35;;;;;;;9.25;3.28;;;;;;;20.52;91.16;99868.16;5054312;28;20035;-65
2022/10/14 11:31:35;;;;;;;5.88;3.42;;;;;;;20.44;89.96;99867.88;5054844;28;20051;-65